Stony Plain, Canada
Current Conditions -  °F | °C
As of 6:00 AM on Friday 28 Nov 2014 (Local Time) from CWSE Reporting Station
Light Snow Light Snow  
Wind Chill: -29°   Ceiling: Unl
Heat Index: -22°   Visibility: 2mi
Dew Point: -25°   Wind: 6mph
Humidity: 76%   Direction: 350°N
Pressure: 29.8"   Gusts: NA
Location:  53.53°N, 114.01°W
Report Text: CWSE 281300Z COR 35005KT 2SM -SN FEW032 OVC/// M22/M25 A2980 RMK SLP186 /S02/ VIS VRB 11/2-21/2 T12171249 WSI/SWOB
Loading
Personal Weather Stations






























Interactive Weather Map New forecast layout! Learn more

10-Day Weather Forecast

Advertisements
Track Severe Weather on mobile